Terminal Aerodrome Forecast
Issued by NWS

Home | Current Version | Previous Version | Text Only | Print | Product List | Glossary Off
Versions: 1 2 3 4 5 6 7 8 9 10 11 12 13 14 15 16 17 18 19 20 21 22 23

669
FTUS43 KBIS 141812 AAA
TAFJMS
TAF AMD
KJMS 141812Z 1418/1518 18010KT 1/2SM FG VV002
     FM141930 21008KT 2SM BR SCT003
     FM142000 29009KT P6SM BKN110
     FM150600 30013G21KT P6SM SCT200
     FM151000 31018G26KT P6SM BKN020=

USA.gov is the U.S. government's official web portal to all federal, state and local government web resources and services.